RYR425M EHEH-LERS
Flight info
| Callsign | RYR425M |
|---|---|
| Flight time | 1h 51m |
| Altitude | 37000 |
| Route | WOODY N872 MEDIL DCT KOVIN DCT DUCRA UM728 RESMI UN857 DISAK DCT DIRMO DCT VALKU DCT ATSUP DCT MINSO DCT DEGOL DCT PPG DCT ALBER P84 GIR |
| Aircraft | B738/M-SDE2E3FGHIRWXY/LB1 |
Departure
| Time | 2026-04-23 10:41 |
|---|---|
| Airport | Eindhoven Airport (EHEH) |
Arrival
| Time | 2026-04-23 12:33 |
|---|---|
| Airport | Reus Airport (LERS) |
| Time | Latitude | Longitude | Altitude | Speed | Heading |
|---|---|---|---|---|---|
| 2026-04-23 09:59 | 51.45889 | 5.39098 | 74 ft | 0 kts | 124° |
| 2026-04-23 10:31 | 51.45890 | 5.39097 | 74 ft | 2 kts | 124° |
| 2026-04-23 10:31 | 51.45903 | 5.39064 | 62 ft | 4 kts | 124° |
| 2026-04-23 10:32 | 51.45915 | 5.39036 | 63 ft | 4 kts | 121° |
| 2026-04-23 10:32 | 51.45923 | 5.38999 | 66 ft | 4 kts | 74° |
| 2026-04-23 10:32 | 51.45909 | 5.38966 | 63 ft | 4 kts | 37° |
| 2026-04-23 10:32 | 51.45904 | 5.38959 | 63 ft | 1 kts | 35° |
| 2026-04-23 10:35 | 51.45916 | 5.38973 | 68 ft | 6 kts | 35° |
| 2026-04-23 10:35 | 51.45973 | 5.38972 | 70 ft | 11 kts | 321° |
| 2026-04-23 10:35 | 51.46019 | 5.38875 | 72 ft | 11 kts | 305° |
| 2026-04-23 10:35 | 51.46062 | 5.38775 | 68 ft | 13 kts | 305° |
| 2026-04-23 10:36 | 51.46128 | 5.38625 | 74 ft | 17 kts | 306° |
| 2026-04-23 10:36 | 51.46160 | 5.38469 | 74 ft | 15 kts | 240° |
| 2026-04-23 10:36 | 51.46072 | 5.38360 | 72 ft | 18 kts | 216° |
| 2026-04-23 10:36 | 51.45955 | 5.38227 | 69 ft | 24 kts | 214° |
| 2026-04-23 10:37 | 51.45807 | 5.38062 | 72 ft | 27 kts | 214° |
| 2026-04-23 10:37 | 51.45659 | 5.37896 | 69 ft | 25 kts | 214° |
| 2026-04-23 10:37 | 51.45521 | 5.37741 | 67 ft | 23 kts | 215° |
| 2026-04-23 10:37 | 51.45382 | 5.37586 | 72 ft | 27 kts | 215° |
| 2026-04-23 10:38 | 51.45219 | 5.37402 | 67 ft | 28 kts | 215° |
| 2026-04-23 10:38 | 51.45061 | 5.37226 | 66 ft | 27 kts | 215° |
| 2026-04-23 10:38 | 51.44917 | 5.37064 | 67 ft | 24 kts | 215° |
| 2026-04-23 10:38 | 51.44784 | 5.36916 | 69 ft | 23 kts | 215° |
| 2026-04-23 10:39 | 51.44653 | 5.36769 | 70 ft | 24 kts | 215° |
| 2026-04-23 10:39 | 51.44514 | 5.36614 | 66 ft | 23 kts | 215° |
| 2026-04-23 10:39 | 51.44384 | 5.36468 | 71 ft | 23 kts | 215° |
| 2026-04-23 10:39 | 51.44277 | 5.36348 | 69 ft | 14 kts | 214° |
| 2026-04-23 10:40 | 51.44199 | 5.36269 | 72 ft | 13 kts | 195° |
| 2026-04-23 10:40 | 51.44133 | 5.36353 | 69 ft | 13 kts | 126° |
| 2026-04-23 10:40 | 51.44115 | 5.36445 | 71 ft | 7 kts | 41° |
| 2026-04-23 10:40 | 51.44210 | 5.36552 | 72 ft | 43 kts | 34° |
| 2026-04-23 10:41 | 51.44675 | 5.37072 | 68 ft | 117 kts | 35° |
| 2026-04-23 10:41 | 51.45505 | 5.38004 | 214 ft | 162 kts | 34° |
| 2026-04-23 10:41 | 51.46415 | 5.39030 | 1141 ft | 156 kts | 33° |
| 2026-04-23 10:41 | 51.47291 | 5.40014 | 2098 ft | 154 kts | 33° |
| 2026-04-23 10:42 | 51.48237 | 5.41068 | 2557 ft | 183 kts | 34° |
| 2026-04-23 10:42 | 51.49345 | 5.42307 | 3017 ft | 200 kts | 34° |
| 2026-04-23 10:42 | 51.50511 | 5.43597 | 3626 ft | 206 kts | 31° |
| 2026-04-23 10:42 | 51.51901 | 5.44196 | 4179 ft | 217 kts | 357° |
| 2026-04-23 10:43 | 51.53343 | 5.43346 | 4853 ft | 229 kts | 324° |
| 2026-04-23 10:43 | 51.54323 | 5.41316 | 5673 ft | 236 kts | 293° |
| 2026-04-23 10:43 | 51.54477 | 5.38675 | 6455 ft | 245 kts | 261° |
| 2026-04-23 10:43 | 51.53962 | 5.36050 | 7219 ft | 249 kts | 252° |
| 2026-04-23 10:44 | 51.53359 | 5.33421 | 7935 ft | 253 kts | 252° |
| 2026-04-23 10:44 | 51.52755 | 5.30746 | 8676 ft | 256 kts | 252° |
| 2026-04-23 10:44 | 51.52262 | 5.27902 | 9058 ft | 277 kts | 260° |
| 2026-04-23 10:44 | 51.51874 | 5.24761 | 9464 ft | 294 kts | 261° |
| 2026-04-23 10:45 | 51.51496 | 5.21494 | 10194 ft | 300 kts | 262° |
| 2026-04-23 10:45 | 51.51107 | 5.18172 | 10856 ft | 308 kts | 261° |
| 2026-04-23 10:45 | 51.50689 | 5.14662 | 11050 ft | 332 kts | 261° |
| 2026-04-23 10:45 | 51.50231 | 5.10901 | 11291 ft | 353 kts | 260° |
| 2026-04-23 10:46 | 51.49745 | 5.06987 | 11850 ft | 361 kts | 260° |
| 2026-04-23 10:46 | 51.49243 | 5.03013 | 12595 ft | 364 kts | 259° |
| 2026-04-23 10:46 | 51.48733 | 4.99020 | 13382 ft | 367 kts | 259° |
| 2026-04-23 10:46 | 51.48217 | 4.94995 | 14154 ft | 371 kts | 259° |
| 2026-04-23 10:47 | 51.47693 | 4.90924 | 14860 ft | 374 kts | 259° |
| 2026-04-23 10:47 | 51.47162 | 4.86817 | 15602 ft | 378 kts | 258° |
| 2026-04-23 10:47 | 51.46626 | 4.82682 | 16357 ft | 380 kts | 258° |
| 2026-04-23 10:47 | 51.46083 | 4.78510 | 17044 ft | 385 kts | 258° |
| 2026-04-23 10:48 | 51.45534 | 4.74286 | 17746 ft | 389 kts | 257° |
| 2026-04-23 10:48 | 51.44976 | 4.70017 | 18468 ft | 392 kts | 257° |
| 2026-04-23 10:48 | 51.44413 | 4.65722 | 19138 ft | 395 kts | 257° |
| 2026-04-23 10:48 | 51.43845 | 4.61401 | 19753 ft | 398 kts | 257° |
| 2026-04-23 10:49 | 51.43272 | 4.57036 | 20345 ft | 402 kts | 256° |
| 2026-04-23 10:49 | 51.42692 | 4.52635 | 20936 ft | 405 kts | 256° |
| 2026-04-23 10:49 | 51.42105 | 4.48200 | 21528 ft | 409 kts | 256° |
| 2026-04-23 10:49 | 51.41510 | 4.43726 | 22105 ft | 412 kts | 255° |
| 2026-04-23 10:50 | 51.40577 | 4.39404 | 22621 ft | 412 kts | 237° |
| 2026-04-23 10:50 | 51.38795 | 4.35866 | 23207 ft | 408 kts | 219° |
| 2026-04-23 10:50 | 51.36467 | 4.33332 | 23811 ft | 405 kts | 204° |
| 2026-04-23 10:50 | 51.33913 | 4.31442 | 24323 ft | 406 kts | 201° |
| 2026-04-23 10:51 | 51.31325 | 4.29571 | 24754 ft | 410 kts | 201° |
| 2026-04-23 10:51 | 51.28763 | 4.27683 | 25171 ft | 413 kts | 202° |
| 2026-04-23 10:51 | 51.26156 | 4.25717 | 25618 ft | 416 kts | 202° |
| 2026-04-23 10:51 | 51.23505 | 4.23701 | 26093 ft | 418 kts | 201° |
| 2026-04-23 10:52 | 51.20909 | 4.21728 | 26514 ft | 420 kts | 201° |
| 2026-04-23 10:52 | 51.18266 | 4.19715 | 26917 ft | 423 kts | 201° |
| 2026-04-23 10:52 | 51.15604 | 4.17680 | 27311 ft | 426 kts | 201° |
| 2026-04-23 10:52 | 51.12923 | 4.15629 | 27704 ft | 428 kts | 201° |
| 2026-04-23 10:53 | 51.10232 | 4.13571 | 28089 ft | 431 kts | 201° |
| 2026-04-23 10:53 | 51.07518 | 4.11498 | 28469 ft | 433 kts | 201° |
| 2026-04-23 10:53 | 51.04792 | 4.09419 | 28837 ft | 436 kts | 200° |
| 2026-04-23 10:53 | 51.02050 | 4.07330 | 29198 ft | 438 kts | 200° |
| 2026-04-23 10:54 | 50.99291 | 4.05232 | 29544 ft | 441 kts | 200° |
| 2026-04-23 10:54 | 50.96514 | 4.03123 | 29890 ft | 443 kts | 200° |
| 2026-04-23 10:54 | 50.93725 | 4.01009 | 30221 ft | 446 kts | 200° |
| 2026-04-23 10:54 | 50.90922 | 3.98886 | 30538 ft | 448 kts | 200° |
| 2026-04-23 10:55 | 50.88105 | 3.96755 | 30806 ft | 450 kts | 200° |
| 2026-04-23 10:55 | 50.85281 | 3.94622 | 31164 ft | 449 kts | 200° |
| 2026-04-23 10:55 | 50.82469 | 3.92497 | 31606 ft | 447 kts | 200° |
| 2026-04-23 10:55 | 50.79671 | 3.90386 | 32042 ft | 445 kts | 199° |
| 2026-04-23 10:56 | 50.76874 | 3.88280 | 32387 ft | 445 kts | 199° |
| 2026-04-23 10:56 | 50.74074 | 3.86178 | 32669 ft | 446 kts | 199° |
| 2026-04-23 10:56 | 50.71273 | 3.84078 | 33025 ft | 445 kts | 199° |
| 2026-04-23 10:56 | 50.68480 | 3.81984 | 33452 ft | 443 kts | 199° |
| 2026-04-23 10:57 | 50.65699 | 3.79902 | 33823 ft | 442 kts | 199° |
| 2026-04-23 10:57 | 50.62919 | 3.77826 | 34128 ft | 442 kts | 199° |
| 2026-04-23 10:57 | 50.60140 | 3.75753 | 34445 ft | 442 kts | 199° |
| 2026-04-23 10:57 | 50.57362 | 3.73682 | 34747 ft | 442 kts | 199° |
| 2026-04-23 10:58 | 50.54584 | 3.71614 | 35010 ft | 442 kts | 199° |
| 2026-04-23 10:58 | 50.51803 | 3.69548 | 35273 ft | 442 kts | 199° |
| 2026-04-23 10:58 | 50.49023 | 3.67484 | 35557 ft | 441 kts | 200° |
| 2026-04-23 10:58 | 50.46246 | 3.65425 | 35800 ft | 442 kts | 200° |
| 2026-04-23 10:59 | 50.43463 | 3.63365 | 36009 ft | 443 kts | 200° |
| 2026-04-23 10:59 | 50.40676 | 3.61305 | 36256 ft | 443 kts | 200° |
| 2026-04-23 10:59 | 50.37893 | 3.59249 | 36494 ft | 443 kts | 200° |
| 2026-04-23 10:59 | 50.35103 | 3.57192 | 36730 ft | 443 kts | 201° |
| 2026-04-23 11:00 | 50.32306 | 3.55132 | 36892 ft | 445 kts | 201° |
| 2026-04-23 11:00 | 50.29501 | 3.53069 | 37114 ft | 445 kts | 201° |
| 2026-04-23 11:00 | 50.26700 | 3.51011 | 37373 ft | 445 kts | 201° |
| 2026-04-23 11:00 | 50.23887 | 3.48948 | 37380 ft | 449 kts | 201° |
| 2026-04-23 11:01 | 50.18216 | 3.44796 | 37379 ft | 450 kts | 201° |
| 2026-04-23 11:01 | 50.12589 | 3.40682 | 37393 ft | 444 kts | 201° |
| 2026-04-23 11:02 | 50.07003 | 3.36614 | 37395 ft | 448 kts | 201° |
| 2026-04-23 11:02 | 50.01340 | 3.32502 | 37388 ft | 451 kts | 201° |
| 2026-04-23 11:03 | 49.95642 | 3.28374 | 37383 ft | 453 kts | 201° |
| 2026-04-23 11:03 | 49.89925 | 3.24242 | 37381 ft | 454 kts | 202° |
| 2026-04-23 11:04 | 49.84187 | 3.20105 | 37374 ft | 455 kts | 202° |
| 2026-04-23 11:04 | 49.79381 | 3.16649 | 37371 ft | 454 kts | 202° |
| 2026-04-23 11:05 | 49.73643 | 3.12535 | 37367 ft | 454 kts | 202° |
| 2026-04-23 11:05 | 49.67908 | 3.08432 | 37368 ft | 454 kts | 203° |
| 2026-04-23 11:06 | 49.59300 | 3.02291 | 37365 ft | 454 kts | 203° |
| 2026-04-23 11:07 | 49.53558 | 2.98209 | 37369 ft | 454 kts | 203° |
| 2026-04-23 11:07 | 49.47815 | 2.94137 | 37371 ft | 455 kts | 203° |
| 2026-04-23 11:08 | 49.42013 | 2.90247 | 37359 ft | 455 kts | 200° |
| 2026-04-23 11:08 | 49.36125 | 2.86702 | 37369 ft | 455 kts | 199° |
| 2026-04-23 11:09 | 49.30262 | 2.83183 | 37356 ft | 456 kts | 199° |
| 2026-04-23 11:09 | 49.24358 | 2.79594 | 37361 ft | 457 kts | 200° |
| 2026-04-23 11:10 | 49.18442 | 2.75983 | 37359 ft | 459 kts | 200° |
| 2026-04-23 11:10 | 49.12508 | 2.72355 | 37344 ft | 460 kts | 200° |
| 2026-04-23 11:11 | 49.06556 | 2.68727 | 37355 ft | 461 kts | 200° |
| 2026-04-23 11:11 | 49.00587 | 2.65102 | 37347 ft | 462 kts | 201° |
| 2026-04-23 11:12 | 48.94601 | 2.61479 | 37337 ft | 464 kts | 202° |
| 2026-04-23 11:12 | 48.88591 | 2.57849 | 37354 ft | 466 kts | 202° |
| 2026-04-23 11:13 | 48.82556 | 2.54211 | 37327 ft | 468 kts | 202° |
| 2026-04-23 11:13 | 48.76500 | 2.50572 | 37319 ft | 469 kts | 201° |
| 2026-04-23 11:14 | 48.70428 | 2.46933 | 37328 ft | 469 kts | 201° |
| 2026-04-23 11:14 | 48.64351 | 2.43300 | 37321 ft | 470 kts | 201° |
| 2026-04-23 11:15 | 48.58274 | 2.39679 | 37307 ft | 469 kts | 202° |
| 2026-04-23 11:15 | 48.52203 | 2.36073 | 37321 ft | 468 kts | 202° |
| 2026-04-23 11:16 | 48.46140 | 2.32475 | 37314 ft | 468 kts | 202° |
| 2026-04-23 11:16 | 48.40088 | 2.28892 | 37299 ft | 467 kts | 202° |
| 2026-04-23 11:17 | 48.34043 | 2.25327 | 37308 ft | 466 kts | 202° |
| 2026-04-23 11:17 | 48.28007 | 2.21772 | 37297 ft | 466 kts | 202° |
| 2026-04-23 11:18 | 48.21974 | 2.18226 | 37293 ft | 465 kts | 202° |
| 2026-04-23 11:18 | 48.15936 | 2.14743 | 37290 ft | 465 kts | 198° |
| 2026-04-23 11:19 | 48.09595 | 2.13209 | 37290 ft | 467 kts | 179° |
| 2026-04-23 11:19 | 48.03101 | 2.13622 | 37289 ft | 468 kts | 177° |
| 2026-04-23 11:20 | 47.96601 | 2.14114 | 37285 ft | 468 kts | 178° |
| 2026-04-23 11:20 | 47.90090 | 2.14544 | 37296 ft | 469 kts | 178° |
| 2026-04-23 11:21 | 47.83596 | 2.15414 | 37283 ft | 470 kts | 166° |
| 2026-04-23 11:21 | 47.77272 | 2.17946 | 37271 ft | 472 kts | 165° |
| 2026-04-23 11:22 | 47.70936 | 2.20583 | 37277 ft | 473 kts | 165° |
| 2026-04-23 11:22 | 47.64566 | 2.23153 | 37280 ft | 476 kts | 165° |
| 2026-04-23 11:23 | 47.58155 | 2.25680 | 37271 ft | 478 kts | 166° |
| 2026-04-23 11:23 | 47.51711 | 2.28199 | 37258 ft | 480 kts | 166° |
| 2026-04-23 11:24 | 47.45246 | 2.30720 | 37264 ft | 481 kts | 166° |
| 2026-04-23 11:24 | 47.38768 | 2.33243 | 37265 ft | 482 kts | 166° |
| 2026-04-23 11:25 | 47.32279 | 2.35765 | 37248 ft | 482 kts | 166° |
| 2026-04-23 11:25 | 47.25788 | 2.38281 | 37254 ft | 482 kts | 166° |
| 2026-04-23 11:26 | 47.19301 | 2.40789 | 37255 ft | 482 kts | 166° |
| 2026-04-23 11:26 | 47.12821 | 2.43289 | 37239 ft | 481 kts | 167° |
| 2026-04-23 11:27 | 47.06346 | 2.45780 | 37263 ft | 481 kts | 167° |
| 2026-04-23 11:27 | 46.99873 | 2.48264 | 37269 ft | 481 kts | 166° |
| 2026-04-23 11:28 | 46.93406 | 2.50739 | 37241 ft | 480 kts | 166° |
| 2026-04-23 11:28 | 46.86945 | 2.53206 | 37251 ft | 479 kts | 167° |
| 2026-04-23 11:29 | 46.80503 | 2.55660 | 37251 ft | 478 kts | 167° |
| 2026-04-23 11:29 | 46.74060 | 2.58107 | 37246 ft | 478 kts | 167° |
| 2026-04-23 11:30 | 46.67622 | 2.60548 | 37244 ft | 478 kts | 167° |
| 2026-04-23 11:30 | 46.61180 | 2.62983 | 37243 ft | 478 kts | 167° |
| 2026-04-23 11:31 | 46.54780 | 2.65397 | 37247 ft | 479 kts | 167° |
| 2026-04-23 11:31 | 46.48329 | 2.67824 | 37235 ft | 479 kts | 167° |
| 2026-04-23 11:32 | 46.41869 | 2.70248 | 37233 ft | 480 kts | 167° |
| 2026-04-23 11:32 | 46.35399 | 2.72670 | 37239 ft | 481 kts | 167° |
| 2026-04-23 11:33 | 46.28911 | 2.75094 | 37227 ft | 482 kts | 167° |
| 2026-04-23 11:33 | 46.22412 | 2.77514 | 37235 ft | 483 kts | 167° |
| 2026-04-23 11:34 | 46.15901 | 2.79934 | 37240 ft | 484 kts | 167° |
| 2026-04-23 11:34 | 46.09373 | 2.82355 | 37218 ft | 485 kts | 167° |
| 2026-04-23 11:35 | 46.02839 | 2.84771 | 37221 ft | 485 kts | 167° |
| 2026-04-23 11:35 | 45.96306 | 2.87182 | 37235 ft | 485 kts | 167° |
| 2026-04-23 11:36 | 45.89773 | 2.89587 | 37224 ft | 485 kts | 167° |
| 2026-04-23 11:36 | 45.83235 | 2.91988 | 37236 ft | 485 kts | 167° |
| 2026-04-23 11:37 | 45.76696 | 2.94380 | 37237 ft | 485 kts | 168° |
| 2026-04-23 11:37 | 45.70047 | 2.95369 | 37229 ft | 478 kts | 185° |
| 2026-04-23 11:38 | 45.63397 | 2.95091 | 37224 ft | 479 kts | 185° |
| 2026-04-23 11:38 | 45.56725 | 2.94820 | 37224 ft | 480 kts | 185° |
| 2026-04-23 11:39 | 45.50033 | 2.94616 | 37218 ft | 482 kts | 185° |
| 2026-04-23 11:39 | 45.43316 | 2.94441 | 37226 ft | 484 kts | 185° |
| 2026-04-23 11:40 | 45.36575 | 2.94269 | 37229 ft | 485 kts | 185° |
| 2026-04-23 11:40 | 45.29812 | 2.94093 | 37218 ft | 487 kts | 185° |
| 2026-04-23 11:41 | 45.23038 | 2.93915 | 37223 ft | 487 kts | 185° |
| 2026-04-23 11:41 | 45.16295 | 2.93739 | 37231 ft | 488 kts | 185° |
| 2026-04-23 11:42 | 45.09502 | 2.93562 | 37222 ft | 488 kts | 185° |
| 2026-04-23 11:42 | 45.02717 | 2.93386 | 37229 ft | 488 kts | 185° |
| 2026-04-23 11:43 | 44.95936 | 2.93210 | 37239 ft | 487 kts | 185° |
| 2026-04-23 11:43 | 44.89169 | 2.93035 | 37236 ft | 486 kts | 185° |
| 2026-04-23 11:44 | 44.82408 | 2.92826 | 37228 ft | 485 kts | 186° |
| 2026-04-23 11:44 | 44.75679 | 2.92344 | 37238 ft | 483 kts | 187° |
| 2026-04-23 11:45 | 44.68969 | 2.91791 | 37239 ft | 483 kts | 187° |
| 2026-04-23 11:45 | 44.62261 | 2.91271 | 37238 ft | 483 kts | 187° |
| 2026-04-23 11:46 | 44.55603 | 2.90782 | 37225 ft | 482 kts | 187° |
| 2026-04-23 11:46 | 44.48861 | 2.90295 | 37233 ft | 481 kts | 187° |
| 2026-04-23 11:47 | 44.42182 | 2.89813 | 37228 ft | 480 kts | 187° |
| 2026-04-23 11:47 | 44.35551 | 2.89334 | 37225 ft | 480 kts | 187° |
| 2026-04-23 11:48 | 44.28884 | 2.88853 | 37223 ft | 480 kts | 187° |
| 2026-04-23 11:48 | 44.22219 | 2.88373 | 37232 ft | 479 kts | 187° |
| 2026-04-23 11:49 | 44.15563 | 2.87894 | 37218 ft | 479 kts | 187° |
| 2026-04-23 11:49 | 44.08912 | 2.87418 | 37229 ft | 478 kts | 187° |
| 2026-04-23 11:50 | 44.02260 | 2.86941 | 37218 ft | 479 kts | 187° |
| 2026-04-23 11:50 | 43.95615 | 2.86468 | 37214 ft | 478 kts | 187° |
| 2026-04-23 11:51 | 43.90051 | 2.86072 | 37229 ft | 477 kts | 187° |
| 2026-04-23 11:51 | 43.83416 | 2.85600 | 37223 ft | 477 kts | 187° |
| 2026-04-23 11:52 | 43.76829 | 2.85172 | 37222 ft | 478 kts | 185° |
| 2026-04-23 11:52 | 43.70174 | 2.85196 | 37234 ft | 478 kts | 182° |
| 2026-04-23 11:53 | 43.63515 | 2.85376 | 37029 ft | 481 kts | 184° |
| 2026-04-23 11:53 | 43.60224 | 2.84995 | 36992 ft | 468 kts | 195° |
| 2026-04-23 11:53 | 43.57099 | 2.83888 | 36972 ft | 461 kts | 204° |
| 2026-04-23 11:54 | 43.51398 | 2.80204 | 36454 ft | 447 kts | 213° |
| 2026-04-23 11:54 | 43.48648 | 2.78164 | 35773 ft | 450 kts | 214° |
| 2026-04-23 11:54 | 43.45912 | 2.76127 | 35474 ft | 444 kts | 214° |
| 2026-04-23 11:54 | 43.43181 | 2.74104 | 35367 ft | 450 kts | 214° |
| 2026-04-23 11:55 | 43.40394 | 2.72052 | 35271 ft | 459 kts | 213° |
| 2026-04-23 11:55 | 43.34690 | 2.67900 | 35232 ft | 466 kts | 213° |
| 2026-04-23 11:56 | 43.28992 | 2.63804 | 35209 ft | 459 kts | 213° |
| 2026-04-23 11:56 | 43.23338 | 2.59748 | 35211 ft | 458 kts | 213° |
| 2026-04-23 11:57 | 43.17687 | 2.55695 | 35195 ft | 458 kts | 213° |
| 2026-04-23 11:57 | 43.12038 | 2.51651 | 35204 ft | 458 kts | 213° |
| 2026-04-23 11:58 | 43.06385 | 2.47612 | 35206 ft | 459 kts | 213° |
| 2026-04-23 11:58 | 43.00719 | 2.43572 | 34662 ft | 462 kts | 213° |
| 2026-04-23 11:58 | 42.97872 | 2.41545 | 34083 ft | 460 kts | 213° |
| 2026-04-23 11:59 | 42.95049 | 2.39540 | 33604 ft | 455 kts | 213° |
| 2026-04-23 11:59 | 42.89423 | 2.35548 | 32681 ft | 457 kts | 213° |
| 2026-04-23 11:59 | 42.86623 | 2.33565 | 32168 ft | 452 kts | 213° |
| 2026-04-23 12:00 | 42.83845 | 2.31600 | 31681 ft | 447 kts | 213° |
| 2026-04-23 12:00 | 42.81096 | 2.29657 | 31231 ft | 443 kts | 213° |
| 2026-04-23 12:00 | 42.78370 | 2.27733 | 30740 ft | 439 kts | 213° |
| 2026-04-23 12:00 | 42.75670 | 2.25828 | 30289 ft | 435 kts | 213° |
| 2026-04-23 12:01 | 42.72994 | 2.23940 | 29788 ft | 432 kts | 213° |
| 2026-04-23 12:01 | 42.70337 | 2.22068 | 29275 ft | 428 kts | 213° |
| 2026-04-23 12:01 | 42.67711 | 2.20219 | 28812 ft | 423 kts | 213° |
| 2026-04-23 12:01 | 42.65149 | 2.18419 | 28375 ft | 419 kts | 213° |
| 2026-04-23 12:02 | 42.62572 | 2.16608 | 27903 ft | 415 kts | 213° |
| 2026-04-23 12:02 | 42.60025 | 2.14821 | 27456 ft | 410 kts | 213° |
| 2026-04-23 12:02 | 42.57500 | 2.13050 | 26992 ft | 407 kts | 213° |
| 2026-04-23 12:02 | 42.54959 | 2.11269 | 26544 ft | 405 kts | 213° |
| 2026-04-23 12:03 | 42.52462 | 2.09520 | 26097 ft | 402 kts | 213° |
| 2026-04-23 12:03 | 42.49987 | 2.07789 | 25668 ft | 399 kts | 213° |
| 2026-04-23 12:03 | 42.47524 | 2.06067 | 25237 ft | 397 kts | 213° |
| 2026-04-23 12:03 | 42.45079 | 2.04360 | 24805 ft | 395 kts | 212° |
| 2026-04-23 12:04 | 42.42643 | 2.02660 | 24380 ft | 393 kts | 212° |
| 2026-04-23 12:04 | 42.40246 | 2.00989 | 23931 ft | 393 kts | 212° |
| 2026-04-23 12:04 | 42.37821 | 1.99300 | 23440 ft | 391 kts | 212° |
| 2026-04-23 12:04 | 42.35410 | 1.97622 | 22954 ft | 389 kts | 212° |
| 2026-04-23 12:05 | 42.33010 | 1.95955 | 22507 ft | 386 kts | 212° |
| 2026-04-23 12:05 | 42.30630 | 1.94302 | 22070 ft | 383 kts | 212° |
| 2026-04-23 12:05 | 42.28269 | 1.92665 | 21637 ft | 380 kts | 212° |
| 2026-04-23 12:05 | 42.25925 | 1.91039 | 21243 ft | 377 kts | 211° |
| 2026-04-23 12:06 | 42.23599 | 1.89427 | 20802 ft | 373 kts | 211° |
| 2026-04-23 12:06 | 42.21299 | 1.87837 | 20414 ft | 370 kts | 211° |
| 2026-04-23 12:06 | 42.16735 | 1.84681 | 19557 ft | 367 kts | 211° |
| 2026-04-23 12:07 | 42.14477 | 1.83122 | 19148 ft | 364 kts | 210° |
| 2026-04-23 12:07 | 42.12232 | 1.81573 | 18743 ft | 361 kts | 210° |
| 2026-04-23 12:07 | 42.10000 | 1.80033 | 18276 ft | 360 kts | 210° |
| 2026-04-23 12:07 | 42.07773 | 1.78500 | 17829 ft | 358 kts | 210° |
| 2026-04-23 12:08 | 42.05568 | 1.76983 | 17408 ft | 354 kts | 210° |
| 2026-04-23 12:08 | 42.03379 | 1.75478 | 16994 ft | 352 kts | 210° |
| 2026-04-23 12:08 | 42.01211 | 1.73989 | 16588 ft | 349 kts | 210° |
| 2026-04-23 12:08 | 41.99056 | 1.72508 | 16177 ft | 346 kts | 210° |
| 2026-04-23 12:09 | 41.96917 | 1.71041 | 15774 ft | 344 kts | 210° |
| 2026-04-23 12:09 | 41.94792 | 1.69583 | 15377 ft | 342 kts | 210° |
| 2026-04-23 12:09 | 41.92681 | 1.68137 | 14972 ft | 340 kts | 210° |
| 2026-04-23 12:09 | 41.90583 | 1.66701 | 14577 ft | 338 kts | 210° |
| 2026-04-23 12:10 | 41.88497 | 1.65273 | 14179 ft | 336 kts | 210° |
| 2026-04-23 12:10 | 41.86421 | 1.63854 | 13756 ft | 334 kts | 210° |
| 2026-04-23 12:10 | 41.84359 | 1.62445 | 13320 ft | 331 kts | 210° |
| 2026-04-23 12:10 | 41.82314 | 1.61048 | 12918 ft | 329 kts | 210° |
| 2026-04-23 12:11 | 41.80282 | 1.59661 | 12508 ft | 327 kts | 210° |
| 2026-04-23 12:11 | 41.78264 | 1.58285 | 12125 ft | 324 kts | 210° |
| 2026-04-23 12:11 | 41.76261 | 1.56921 | 11715 ft | 322 kts | 210° |
| 2026-04-23 12:11 | 41.74276 | 1.55572 | 11334 ft | 319 kts | 210° |
| 2026-04-23 12:12 | 41.72220 | 1.54514 | 11123 ft | 315 kts | 197° |
| 2026-04-23 12:12 | 41.70078 | 1.53979 | 11003 ft | 311 kts | 193° |
| 2026-04-23 12:12 | 41.67947 | 1.53492 | 10879 ft | 312 kts | 194° |
| 2026-04-23 12:12 | 41.65786 | 1.52983 | 10759 ft | 318 kts | 193° |
| 2026-04-23 12:13 | 41.63606 | 1.52449 | 10624 ft | 318 kts | 194° |
| 2026-04-23 12:13 | 41.61445 | 1.51908 | 10480 ft | 314 kts | 194° |
| 2026-04-23 12:13 | 41.59327 | 1.51373 | 10343 ft | 305 kts | 195° |
| 2026-04-23 12:13 | 41.57279 | 1.50842 | 10209 ft | 294 kts | 198° |
| 2026-04-23 12:14 | 41.55506 | 1.49703 | 10075 ft | 276 kts | 224° |
| 2026-04-23 12:14 | 41.54283 | 1.47778 | 9823 ft | 271 kts | 241° |
| 2026-04-23 12:14 | 41.53576 | 1.45469 | 9700 ft | 268 kts | 253° |
| 2026-04-23 12:14 | 41.53038 | 1.43100 | 9574 ft | 266 kts | 254° |
| 2026-04-23 12:15 | 41.52513 | 1.40726 | 9459 ft | 266 kts | 255° |
| 2026-04-23 12:15 | 41.51990 | 1.38348 | 9336 ft | 268 kts | 255° |
| 2026-04-23 12:15 | 41.51461 | 1.35956 | 9210 ft | 271 kts | 254° |
| 2026-04-23 12:15 | 41.50924 | 1.33539 | 9107 ft | 273 kts | 254° |
| 2026-04-23 12:16 | 41.50381 | 1.31108 | 9002 ft | 275 kts | 253° |
| 2026-04-23 12:16 | 41.49832 | 1.28665 | 8889 ft | 274 kts | 254° |
| 2026-04-23 12:16 | 41.49286 | 1.26238 | 8757 ft | 272 kts | 253° |
| 2026-04-23 12:16 | 41.48742 | 1.23834 | 8665 ft | 269 kts | 254° |
| 2026-04-23 12:17 | 41.48202 | 1.21447 | 8533 ft | 269 kts | 253° |
| 2026-04-23 12:17 | 41.47662 | 1.19066 | 8427 ft | 268 kts | 253° |
| 2026-04-23 12:17 | 41.47122 | 1.16689 | 8316 ft | 269 kts | 253° |
| 2026-04-23 12:17 | 41.46579 | 1.14301 | 8217 ft | 271 kts | 253° |
| 2026-04-23 12:18 | 41.46029 | 1.11883 | 8120 ft | 275 kts | 253° |
| 2026-04-23 12:18 | 41.45466 | 1.09427 | 8004 ft | 277 kts | 251° |
| 2026-04-23 12:18 | 41.44535 | 1.07195 | 7793 ft | 278 kts | 229° |
| 2026-04-23 12:18 | 41.43223 | 1.05318 | 7660 ft | 277 kts | 226° |
| 2026-04-23 12:19 | 41.41902 | 1.03463 | 7520 ft | 275 kts | 226° |
| 2026-04-23 12:19 | 41.40591 | 1.01598 | 7407 ft | 276 kts | 227° |
| 2026-04-23 12:19 | 41.39292 | 0.99722 | 7288 ft | 276 kts | 227° |
| 2026-04-23 12:19 | 41.38000 | 0.97837 | 7168 ft | 276 kts | 227° |
| 2026-04-23 12:20 | 41.36712 | 0.95948 | 7055 ft | 276 kts | 227° |
| 2026-04-23 12:20 | 41.35426 | 0.94053 | 6935 ft | 276 kts | 227° |
| 2026-04-23 12:20 | 41.34143 | 0.92156 | 6810 ft | 276 kts | 227° |
| 2026-04-23 12:20 | 41.32864 | 0.90264 | 6700 ft | 274 kts | 227° |
| 2026-04-23 12:21 | 41.31602 | 0.88395 | 6575 ft | 269 kts | 226° |
| 2026-04-23 12:21 | 41.30357 | 0.86552 | 6445 ft | 267 kts | 226° |
| 2026-04-23 12:21 | 41.29116 | 0.84714 | 6342 ft | 266 kts | 226° |
| 2026-04-23 12:21 | 41.27878 | 0.82880 | 6225 ft | 267 kts | 226° |
| 2026-04-23 12:22 | 41.26654 | 0.81070 | 6106 ft | 259 kts | 226° |
| 2026-04-23 12:22 | 41.25465 | 0.79314 | 5999 ft | 252 kts | 226° |
| 2026-04-23 12:22 | 41.24305 | 0.77599 | 5895 ft | 246 kts | 225° |
| 2026-04-23 12:22 | 41.23095 | 0.76088 | 5763 ft | 239 kts | 206° |
| 2026-04-23 12:23 | 41.21525 | 0.75499 | 5698 ft | 229 kts | 188° |
| 2026-04-23 12:23 | 41.19965 | 0.75136 | 5602 ft | 232 kts | 188° |
| 2026-04-23 12:23 | 41.18363 | 0.74767 | 5511 ft | 235 kts | 188° |
| 2026-04-23 12:23 | 41.16752 | 0.74404 | 5404 ft | 234 kts | 185° |
| 2026-04-23 12:24 | 41.15149 | 0.74397 | 5301 ft | 227 kts | 173° |
| 2026-04-23 12:24 | 41.13578 | 0.74525 | 5216 ft | 225 kts | 175° |
| 2026-04-23 12:24 | 41.12008 | 0.74629 | 5122 ft | 225 kts | 175° |
| 2026-04-23 12:24 | 41.10454 | 0.74722 | 5032 ft | 222 kts | 174° |
| 2026-04-23 12:25 | 41.08958 | 0.75117 | 4904 ft | 219 kts | 154° |
| 2026-04-23 12:25 | 41.07615 | 0.76027 | 4841 ft | 216 kts | 152° |
| 2026-04-23 12:25 | 41.06278 | 0.76910 | 4741 ft | 214 kts | 149° |
| 2026-04-23 12:25 | 41.04940 | 0.77789 | 4651 ft | 216 kts | 148° |
| 2026-04-23 12:26 | 41.03670 | 0.78836 | 4536 ft | 214 kts | 129° |
| 2026-04-23 12:26 | 41.02993 | 0.80539 | 4478 ft | 212 kts | 101° |
| 2026-04-23 12:26 | 41.02987 | 0.82496 | 4377 ft | 218 kts | 78° |
| 2026-04-23 12:26 | 41.03577 | 0.84371 | 4308 ft | 223 kts | 66° |
| 2026-04-23 12:27 | 41.04270 | 0.86200 | 4215 ft | 218 kts | 67° |
| 2026-04-23 12:27 | 41.04925 | 0.87936 | 4106 ft | 204 kts | 67° |
| 2026-04-23 12:27 | 41.05539 | 0.89569 | 3972 ft | 191 kts | 67° |
| 2026-04-23 12:27 | 41.06115 | 0.91107 | 3838 ft | 185 kts | 67° |
| 2026-04-23 12:28 | 41.06678 | 0.92617 | 3651 ft | 179 kts | 68° |
| 2026-04-23 12:28 | 41.07221 | 0.94072 | 3473 ft | 173 kts | 67° |
| 2026-04-23 12:28 | 41.07749 | 0.95490 | 3255 ft | 170 kts | 67° |
| 2026-04-23 12:28 | 41.08261 | 0.96866 | 3079 ft | 164 kts | 68° |
| 2026-04-23 12:29 | 41.08759 | 0.98202 | 2891 ft | 159 kts | 67° |
| 2026-04-23 12:29 | 41.09243 | 0.99503 | 2711 ft | 157 kts | 67° |
| 2026-04-23 12:29 | 41.09720 | 1.00788 | 2533 ft | 154 kts | 67° |
| 2026-04-23 12:29 | 41.10188 | 1.02046 | 2373 ft | 150 kts | 69° |
| 2026-04-23 12:30 | 41.10648 | 1.03287 | 2214 ft | 149 kts | 69° |
| 2026-04-23 12:30 | 41.11105 | 1.04521 | 2037 ft | 149 kts | 67° |
| 2026-04-23 12:30 | 41.11550 | 1.05758 | 1857 ft | 148 kts | 71° |
| 2026-04-23 12:30 | 41.11924 | 1.07017 | 1649 ft | 145 kts | 72° |
| 2026-04-23 12:31 | 41.12279 | 1.08242 | 1457 ft | 142 kts | 72° |
| 2026-04-23 12:31 | 41.12620 | 1.09415 | 1321 ft | 133 kts | 72° |
| 2026-04-23 12:31 | 41.12950 | 1.10551 | 1129 ft | 131 kts | 72° |
| 2026-04-23 12:31 | 41.13278 | 1.11679 | 938 ft | 135 kts | 73° |
| 2026-04-23 12:32 | 41.13612 | 1.12828 | 742 ft | 131 kts | 74° |
| 2026-04-23 12:32 | 41.13933 | 1.13958 | 578 ft | 133 kts | 73° |
| 2026-04-23 12:32 | 41.14267 | 1.15104 | 397 ft | 135 kts | 75° |
| 2026-04-23 12:32 | 41.14603 | 1.16245 | 247 ft | 130 kts | 72° |
| 2026-04-23 12:33 | 41.14866 | 1.17148 | 242 ft | 72 kts | 69° |
| 2026-04-23 12:33 | 41.14975 | 1.17521 | 242 ft | 16 kts | 69° |
| 2026-04-23 12:33 | 41.15013 | 1.17593 | 242 ft | 9 kts | 23° |
| 2026-04-23 12:33 | 41.15086 | 1.17576 | 242 ft | 12 kts | 339° |
| 2026-04-23 12:34 | 41.15142 | 1.17527 | 242 ft | 10 kts | 287° |
| 2026-04-23 12:34 | 41.15123 | 1.17424 | 242 ft | 14 kts | 249° |
| 2026-04-23 12:34 | 41.15094 | 1.17324 | 242 ft | 20 kts | 249° |
| 2026-04-23 12:34 | 41.15016 | 1.17056 | 242 ft | 25 kts | 248° |
| 2026-04-23 12:35 | 41.14957 | 1.16855 | 243 ft | 23 kts | 249° |
| 2026-04-23 12:35 | 41.14919 | 1.16725 | 243 ft | 22 kts | 249° |
| 2026-04-23 12:35 | 41.14864 | 1.16538 | 243 ft | 21 kts | 249° |
| 2026-04-23 12:35 | 41.14811 | 1.16355 | 243 ft | 21 kts | 249° |
| 2026-04-23 12:36 | 41.14760 | 1.16182 | 242 ft | 19 kts | 249° |
| 2026-04-23 12:36 | 41.14716 | 1.16029 | 242 ft | 15 kts | 250° |
| 2026-04-23 12:36 | 41.14679 | 1.15906 | 242 ft | 14 kts | 248° |
| 2026-04-23 12:36 | 41.14646 | 1.15791 | 242 ft | 13 kts | 249° |
| 2026-04-23 12:37 | 41.14659 | 1.15702 | 264 ft | 9 kts | 332° |
| 2026-04-23 12:37 | 41.14695 | 1.15683 | 240 ft | 3 kts | 339° |
| 2026-04-23 12:37 | 41.14698 | 1.15681 | 240 ft | 0 kts | 339° |